^^
Station Historical Data
Daily Summary for July 27, 2017 Units:  English    Metric   Both
« Previous Day
Next Day »
Daily Weekly Monthly Yearly Custom
  High: Low: Average:
Temperature: 75.1 °F 61.2 °F 69.3 °F
Dew Point: 69.9 °F 57.1 °F 64.8 °F
Humidity: 94% 79% 86%
Wind Speed: 3.0mph 0.0mph 0.7mph
Wind Gust: 8.0mph - -
Wind- - SSW
Pressure: 30.14 in 29.88 in -
Precipitation: 0.00 in    
Historical Graphs
 
 
Tabular Data for July 27, 2017
Time Temperature Dew Point Pressure Wind Wind Speed Wind Gust Humidity Rainfall Rate (Hourly) Conditions
00:00 63.6 °F 57.7 °F 30.14 in Calm   1.0 mph 81% 0.00 in CLR
00:15 63.4 °F 57.5 °F 30.14 in Calm   1.0 mph 81% 0.00 in CLR
00:30 63.4 °F 57.5 °F 30.13 in Calm   1.0 mph 81% 0.00 in CLR
00:45 63.4 °F 57.5 °F 30.12 in Calm   2.0 mph 81% 0.00 in CLR
01:00 62.6 °F 57.1 °F 30.12 in Calm     82% 0.00 in CLR
02:15 61.7 °F 57.8 °F 30.11 in Calm     87% 0.00 in CLR
02:30 61.6 °F 58.0 °F 30.10 in Calm     88% 0.00 in CLR
02:45 61.2 °F 57.9 °F 30.10 in Calm     89% 0.00 in CLR
03:00 61.3 °F 58.3 °F 30.09 in Calm     90% 0.00 in CLR
03:15 61.6 °F 58.9 °F 30.09 in Calm   1.0 mph 91% 0.00 in CLR
03:30 62.5 °F 59.5 °F 30.08 in SSW 2.0 mph 3.0 mph 90% 0.00 in CLR
03:45 62.8 °F 59.5 °F 30.08 in Calm   3.0 mph 89% 0.00 in CLR
04:00 62.8 °F 59.5 °F 30.08 in Calm   2.0 mph 89% 0.00 in CLR
04:15 62.9 °F 59.6 °F 30.06 in South 3.0 mph 7.0 mph 89% 0.00 in SCT
04:30 63.0 °F 59.7 °F 30.06 in South 1.0 mph 6.0 mph 89% 0.00 in SCT
04:45 63.2 °F 59.9 °F 30.06 in South 1.0 mph 7.0 mph 89% 0.00 in SCT
05:00 63.1 °F 59.8 °F 30.07 in SSW 1.0 mph 4.0 mph 89% 0.00 in SCT
05:15 63.2 °F 59.9 °F 30.07 in Calm   3.0 mph 89% 0.00 in CLR
05:30 63.1 °F 59.8 °F 30.07 in SSW 1.0 mph 4.0 mph 89% 0.00 in CLR
05:45 63.2 °F 59.9 °F 30.07 in Calm   5.0 mph 89% 0.00 in CLR
06:15 63.2 °F 60.2 °F 30.07 in Calm   5.0 mph 90% 0.00 in CLR
06:30 63.3 °F 60.3 °F 30.07 in Calm   4.0 mph 90% 0.00 in CLR
06:45 63.8 °F 60.5 °F 30.07 in SW 1.0 mph 7.0 mph 89% 0.00 in CLR
07:00 63.9 °F 60.3 °F 30.06 in Calm   4.0 mph 88% 0.00 in CLR
07:15 64.1 °F 60.5 °F 30.06 in Calm   4.0 mph 88% 0.00 in CLR
07:30 64.3 °F 60.7 °F 30.06 in Calm   5.0 mph 88% 0.00 in CLR
07:45 64.7 °F 61.1 °F 30.06 in SW 1.0 mph 3.0 mph 88% 0.00 in CLR
08:01 65.2 °F 61.2 °F 30.06 in SSW 2.0 mph 6.0 mph 87% 0.00 in CLR
08:15 65.6 °F 61.3 °F 30.06 in SW 2.0 mph 7.0 mph 86% 0.00 in FEW
08:30 65.9 °F 61.2 °F 30.06 in SSW 1.0 mph 6.0 mph 85% 0.00 in FEW
08:45 66.5 °F 61.9 °F 30.06 in Calm   4.0 mph 85% 0.00 in FEW
09:00 67.1 °F 62.1 °F 30.05 in Calm   5.0 mph 84% 0.00 in FEW
09:15 67.6 °F 62.3 °F 30.04 in SW 2.0 mph 5.0 mph 83% 0.00 in SCT
09:30 68.1 °F 62.7 °F 30.04 in SW 1.0 mph 5.0 mph 83% 0.00 in SCT
09:45 69.4 °F 63.3 °F 30.03 in SSW 1.0 mph 6.0 mph 81% 0.00 in SCT
10:00 69.7 °F 63.6 °F 30.03 in SW 1.0 mph 6.0 mph 81% 0.00 in SCT
10:15 69.8 °F 64.0 °F 30.03 in Calm   5.0 mph 82% 0.00 in BKN
10:30 70.0 °F 63.9 °F 30.02 in SW 1.0 mph 4.0 mph 81% 0.00 in BKN
10:45 70.8 °F 64.3 °F 30.02 in SSW 1.0 mph 7.0 mph 80% 0.00 in BKN
11:00 71.2 °F 65.1 °F 30.02 in SW 2.0 mph 4.0 mph 81% 0.00 in BKN
11:15 71.7 °F 64.8 °F 30.01 in SW 1.0 mph 4.0 mph 79% 0.00 in BKN
11:30 72.4 °F 65.5 °F 30.01 in SW 1.0 mph 5.0 mph 79% 0.00 in BKN
11:45 72.2 °F 66.0 °F 30.00 in SW 2.0 mph 6.0 mph 81% 0.00 in BKN
12:00 72.1 °F 65.9 °F 30.00 in SSW 1.0 mph 8.0 mph 81% 0.00 in BKN
12:15 72.4 °F 66.6 °F 30.00 in SW 1.0 mph 4.0 mph 82% 0.00 in BKN
12:30 72.8 °F 66.6 °F 29.99 in WSW 3.0 mph 6.0 mph 81% 0.00 in BKN
12:45 73.7 °F 67.1 °F 29.98 in SW 2.0 mph 6.0 mph 80% 0.00 in BKN
13:00 74.2 °F 67.3 °F 29.98 in Calm   7.0 mph 79% 0.00 in BKN
13:15 74.4 °F 67.5 °F 29.97 in South 2.0 mph 6.0 mph 79% 0.00 in BKN
13:30 74.8 °F 67.9 °F 29.96 in SSW 2.0 mph 6.0 mph 79% 0.00 in BKN
13:45 74.5 °F 67.6 °F 29.96 in SSW 2.0 mph 6.0 mph 79% 0.00 in BKN
14:00 74.1 °F 67.5 °F 29.95 in SSW 3.0 mph 5.0 mph 80% 0.00 in BKN
14:15 74.4 °F 68.2 °F 29.95 in SW 3.0 mph 6.0 mph 81% 0.00 in BKN
14:30 74.5 °F 68.3 °F 29.94 in SSW 1.0 mph 7.0 mph 81% 0.00 in BKN
14:45 74.5 °F 67.9 °F 29.94 in SW 2.0 mph 7.0 mph 80% 0.00 in BKN
15:00 74.9 °F 68.3 °F 29.94 in SSW 2.0 mph 6.0 mph 80% 0.00 in BKN
15:15 74.9 °F 68.3 °F 29.94 in SW 1.0 mph 5.0 mph 80% 0.00 in -DZ
15:30 75.1 °F 68.9 °F 29.94 in SW 1.0 mph 4.0 mph 81% 0.00 in -DZ
16:00 74.8 °F 68.6 °F 29.94 in Calm   3.0 mph 81% 0.00 in -DZ
16:15 74.5 °F 68.6 °F 29.93 in Calm   2.0 mph 82% 0.00 in -RA
16:30 74.2 °F 68.7 °F 29.93 in South 1.0 mph 3.0 mph 83% 0.00 in -RA
16:45 74.2 °F 68.7 °F 29.93 in Calm   3.0 mph 83% 0.00 in -RA
17:00 74.6 °F 69.1 °F 29.92 in Calm   4.0 mph 83% 0.00 in -RA
17:15 74.4 °F 68.9 °F 29.92 in SSW 1.0 mph 4.0 mph 83% 0.00 in BKN
17:30 74.1 °F 69.0 °F 29.92 in SSW 2.0 mph 6.0 mph 84% 0.00 in BKN
17:45 74.0 °F 68.9 °F 29.91 in Calm   5.0 mph 84% 0.00 in BKN
18:00 73.8 °F 69.1 °F 29.91 in SSW 1.0 mph 3.0 mph 85% 0.00 in BKN
18:15 73.7 °F 68.9 °F 29.91 in SSW 1.0 mph 4.0 mph 85% 0.00 in BKN
18:30 74.7 °F 69.9 °F 29.90 in Calm   5.0 mph 85% 0.00 in BKN
18:45 75.1 °F 69.6 °F 29.90 in Calm   4.0 mph 83% 0.00 in BKN
19:00 74.2 °F 69.7 °F 29.91 in Calm   6.0 mph 86% 0.00 in BKN
19:15 74.4 °F 69.9 °F 29.90 in Calm   4.0 mph 86% 0.00 in BKN
19:30 74.4 °F 69.6 °F 29.90 in Calm   4.0 mph 85% 0.00 in BKN
19:45 73.1 °F 69.3 °F 29.89 in SSW 1.0 mph 7.0 mph 88% 0.00 in BKN
20:00 72.3 °F 69.2 °F 29.89 in SW 1.0 mph 4.0 mph 90% 0.00 in BKN
20:15 71.7 °F 68.9 °F 29.89 in SW 1.0 mph 3.0 mph 91% 0.00 in SCT
20:30 71.4 °F 69.0 °F 29.89 in SSW 1.0 mph 4.0 mph 92% 0.00 in SCT
20:45 71.3 °F 68.9 °F 29.89 in Calm   3.0 mph 92% 0.00 in SCT
21:00 71.2 °F 68.7 °F 29.90 in Calm   4.0 mph 92% 0.00 in SCT
21:15 71.0 °F 68.9 °F 29.90 in Calm   3.0 mph 93% 0.00 in CLR
21:30 70.9 °F 68.8 °F 29.90 in Calm   2.0 mph 93% 0.00 in CLR
21:45 71.0 °F 68.8 °F 29.90 in Calm   2.0 mph 93% 0.00 in CLR
22:00 70.9 °F 68.8 °F 29.89 in Calm   3.0 mph 93% 0.00 in CLR
22:15 70.7 °F 68.6 °F 29.89 in Calm   1.0 mph 93% 0.00 in CLR
22:30 70.4 °F 68.6 °F 29.89 in Calm   2.0 mph 94% 0.00 in CLR
22:45 70.7 °F 68.9 °F 29.88 in SSW 1.0 mph 4.0 mph 94% 0.00 in CLR
23:00 70.9 °F 69.1 °F 29.88 in Calm   3.0 mph 94% 0.00 in CLR
23:15 70.9 °F 69.1 °F 29.88 in Calm   2.0 mph 94% 0.00 in CLR
23:30 70.7 °F 68.6 °F 29.88 in Calm     93% 0.00 in CLR
23:45 70.6 °F 68.8 °F 29.88 in Calm     94% 0.00 in CLR
TarryTown NY Weather
Compliments of Weather Underground - 1.5 mb